createdAt,value
2019-05-02T00:02:00.716Z,99.90
2019-05-02T00:04:30.752Z,99.90
2019-05-02T00:07:14.622Z,99.90
2019-05-02T00:09:48.412Z,99.90
2019-05-02T00:12:17.393Z,99.90
2019-05-02T00:14:47.854Z,99.90
2019-05-02T00:17:20.155Z,99.90
2019-05-02T00:19:51.274Z,99.90
2019-05-02T00:22:21.505Z,99.90
2019-05-02T00:24:51.552Z,99.90
2019-05-02T00:27:22.581Z,99.90
2019-05-02T00:29:53.756Z,99.90
2019-05-02T00:32:24.463Z,99.90
2019-05-02T00:34:54.624Z,99.90
2019-05-02T00:37:26.623Z,99.90
2019-05-02T00:39:56.487Z,99.90
2019-05-02T00:42:26.553Z,99.90
2019-05-02T00:44:56.618Z,99.90
2019-05-02T00:47:36.034Z,99.90
2019-05-02T00:50:11.279Z,99.90
2019-05-02T00:52:39.746Z,99.90
2019-05-02T00:55:09.875Z,99.90
2019-05-02T00:57:40.114Z,99.90
2019-05-02T01:00:13.428Z,99.90
2019-05-02T01:03:01.936Z,99.90
2019-05-02T01:05:33.828Z,99.90
2019-05-02T01:08:03.916Z,99.90
2019-05-02T01:10:33.934Z,99.90
2019-05-02T01:13:04.003Z,99.90
2019-05-02T01:15:34.149Z,99.90
2019-05-02T01:18:06.219Z,99.90
2019-05-02T01:20:36.067Z,99.90
2019-05-02T01:23:06.107Z,99.90
2019-05-02T01:25:36.237Z,99.90
2019-05-02T01:28:17.712Z,99.90
2019-05-02T01:31:13.017Z,99.90
2019-05-02T01:33:54.061Z,99.90
2019-05-02T01:36:28.852Z,99.90
2019-05-02T01:39:02.916Z,99.90
2019-05-02T01:41:31.106Z,99.90
2019-05-02T01:44:01.669Z,99.90
2019-05-02T01:46:31.726Z,99.90
2019-05-02T01:49:01.879Z,99.90
2019-05-02T01:51:31.931Z,99.90
2019-05-02T01:54:05.070Z,99.90
2019-05-02T01:56:34.889Z,99.90
2019-05-02T01:59:05.199Z,99.90
2019-05-02T02:01:35.176Z,99.90
2019-05-02T02:04:05.387Z,99.90
2019-05-02T02:06:38.826Z,99.90
2019-05-02T02:09:09.635Z,99.90
2019-05-02T02:11:40.353Z,99.90
2019-05-02T02:14:12.774Z,99.90
2019-05-02T02:16:42.436Z,99.90
2019-05-02T02:19:21.167Z,99.90
2019-05-02T02:22:04.974Z,99.90
2019-05-02T02:24:38.865Z,99.90
2019-05-02T02:27:09.043Z,99.90
2019-05-02T02:29:43.857Z,99.90
2019-05-02T02:32:10.962Z,99.90
2019-05-02T02:34:41.023Z,99.90
2019-05-02T02:37:12.500Z,99.90
2019-05-02T02:39:48.696Z,99.90
2019-05-02T02:42:14.657Z,99.90
2019-05-02T02:45:00.530Z,99.90
2019-05-02T02:47:30.745Z,99.90
2019-05-02T02:50:02.483Z,99.90
2019-05-02T02:52:37.915Z,99.90
2019-05-02T02:55:04.891Z,99.90
2019-05-02T02:57:35.278Z,99.90
2019-05-02T03:00:08.672Z,99.90
2019-05-02T03:02:47.518Z,99.90
2019-05-02T03:05:10.217Z,99.90
2019-05-02T03:07:40.505Z,99.90
2019-05-02T03:10:10.856Z,99.90
2019-05-02T03:12:58.606Z,99.90
2019-05-02T03:15:30.700Z,99.90
2019-05-02T03:18:02.123Z,99.90
2019-05-02T03:20:39.810Z,99.90
2019-05-02T03:23:04.278Z,99.90
2019-05-02T03:25:49.830Z,99.90
2019-05-02T03:28:17.322Z,99.90
2019-05-02T03:30:38.267Z,99.90
2019-05-02T03:33:11.354Z,99.90
2019-05-02T03:35:43.974Z,99.90
2019-05-02T03:38:12.002Z,99.90
2019-05-02T03:40:42.086Z,99.90
2019-05-02T03:43:19.231Z,99.90
2019-05-02T03:45:44.849Z,99.90
2019-05-02T03:48:18.304Z,99.90
2019-05-02T03:50:46.852Z,99.90
2019-05-02T03:53:17.647Z,99.90
2019-05-02T03:55:48.875Z,99.90
2019-05-02T03:58:19.089Z,99.90
2019-05-02T04:01:00.932Z,99.90
2019-05-02T04:03:22.747Z,99.90
2019-05-02T04:05:53.114Z,99.90
2019-05-02T04:08:23.852Z,99.90
2019-05-02T04:11:25.498Z,99.90
2019-05-02T04:13:56.323Z,99.90
2019-05-02T04:16:28.692Z,99.90
2019-05-02T04:19:03.040Z,99.90
2019-05-02T04:21:34.357Z,99.90
2019-05-02T04:24:12.620Z,99.90
2019-05-02T04:26:37.171Z,99.90
2019-05-02T04:29:07.245Z,99.90
2019-05-02T04:31:37.415Z,99.90
2019-05-02T04:34:14.925Z,99.90
2019-05-02T04:36:39.249Z,99.90
2019-05-02T04:39:15.145Z,99.90
2019-05-02T04:41:42.685Z,99.90
2019-05-02T04:44:12.867Z,99.90
2019-05-02T04:46:43.032Z,99.90
2019-05-02T04:49:13.113Z,99.90
2019-05-02T04:51:50.763Z,99.90
2019-05-02T04:54:21.377Z,99.90
2019-05-02T04:56:52.317Z,99.90
2019-05-02T04:59:22.729Z,99.90
2019-05-02T05:01:56.998Z,99.90
2019-05-02T05:04:22.255Z,99.90
2019-05-02T05:06:55.797Z,99.90
2019-05-02T05:09:24.098Z,99.90
2019-05-02T05:12:00.907Z,99.90
2019-05-02T05:14:31.413Z,99.90
2019-05-02T05:16:58.098Z,99.90
2019-05-02T05:19:32.631Z,99.90
2019-05-02T05:22:04.823Z,99.90
2019-05-02T05:24:42.291Z,99.90
2019-05-02T05:27:13.259Z,99.90
2019-05-02T05:29:48.015Z,99.90
2019-05-02T05:32:17.924Z,99.90
2019-05-02T05:34:48.179Z,99.90
2019-05-02T05:37:18.431Z,99.90
2019-05-02T05:39:52.450Z,99.90
2019-05-02T05:42:23.243Z,99.90
2019-05-02T05:44:52.214Z,99.90
2019-05-02T05:47:22.266Z,99.90
2019-05-02T05:49:56.856Z,99.90
2019-05-02T05:52:24.078Z,99.90
2019-05-02T05:54:54.263Z,99.90
2019-05-02T05:57:24.350Z,99.90
2019-05-02T05:59:54.334Z,99.90
2019-05-02T06:02:24.525Z,99.90
2019-05-02T06:04:55.464Z,99.90
2019-05-02T06:07:27.804Z,99.90
2019-05-02T06:10:02.237Z,99.90
2019-05-02T06:12:30.405Z,99.90
2019-05-02T06:15:03.619Z,99.90
2019-05-02T06:17:33.098Z,99.90
2019-05-02T06:20:03.419Z,99.90
2019-05-02T06:22:33.489Z,99.90
2019-05-02T06:25:09.200Z,99.90
2019-05-02T06:27:38.554Z,99.90
2019-05-02T06:30:09.231Z,99.90
2019-05-02T06:32:39.574Z,99.90
2019-05-02T06:35:09.793Z,99.90
2019-05-02T06:37:40.715Z,99.90
2019-05-02T06:40:11.498Z,99.90
2019-05-02T06:42:41.572Z,99.90
2019-05-02T06:45:12.038Z,99.90
2019-05-02T06:47:43.620Z,99.90
2019-05-02T06:50:14.147Z,99.90
2019-05-02T06:52:44.254Z,99.90
2019-05-02T06:55:14.475Z,99.90
2019-05-02T06:57:44.508Z,99.90
2019-05-02T07:00:14.686Z,99.90
2019-05-02T07:02:44.823Z,99.90
2019-05-02T07:05:14.930Z,99.90
2019-05-02T07:07:48.228Z,99.90
2019-05-02T07:10:20.171Z,99.90
2019-05-02T07:12:51.286Z,99.90
2019-05-02T07:15:48.822Z,99.90
2019-05-02T07:18:19.035Z,99.90
2019-05-02T07:20:49.127Z,99.90
2019-05-02T07:23:19.176Z,99.90
2019-05-02T07:25:49.374Z,99.90
2019-05-02T07:28:19.638Z,99.90
2019-05-02T07:30:50.060Z,99.90
2019-05-02T07:33:20.277Z,99.90
2019-05-02T07:35:50.317Z,99.90
2019-05-02T07:38:25.480Z,99.90
2019-05-02T07:40:53.110Z,99.90
2019-05-02T07:43:23.769Z,99.90
2019-05-02T07:45:53.802Z,99.90
2019-05-02T07:48:23.756Z,99.90
2019-05-02T07:50:54.398Z,99.90
2019-05-02T07:53:24.639Z,99.90
2019-05-02T07:55:54.684Z,99.90
2019-05-02T07:58:24.776Z,99.90
2019-05-02T08:00:54.854Z,99.90
2019-05-02T08:03:29.318Z,99.90
2019-05-02T08:05:58.676Z,99.90
2019-05-02T08:08:31.818Z,99.90
2019-05-02T08:11:03.163Z,99.90
2019-05-02T08:13:33.369Z,99.90
2019-05-02T08:16:03.433Z,99.90
2019-05-02T08:18:33.391Z,99.90
2019-05-02T08:21:03.362Z,99.90
2019-05-02T08:23:33.427Z,99.90
2019-05-02T08:26:03.492Z,99.90
2019-05-02T08:28:39.596Z,99.90
2019-05-02T08:31:13.488Z,99.90
2019-05-02T08:33:41.608Z,99.90
2019-05-02T08:36:12.352Z,99.90
2019-05-02T08:38:43.469Z,99.90
2019-05-02T08:41:13.583Z,99.90
2019-05-02T08:43:44.925Z,99.90
2019-05-02T08:46:15.920Z,99.90
2019-05-02T08:48:46.077Z,99.90
2019-05-02T08:51:16.099Z,99.90
2019-05-02T08:53:46.189Z,99.90
2019-05-02T08:56:21.363Z,99.90
2019-05-02T08:58:49.871Z,99.90
2019-05-02T09:01:20.002Z,99.90
2019-05-02T09:03:55.066Z,99.90
2019-05-02T09:06:22.664Z,99.90
2019-05-02T09:08:53.794Z,99.90
2019-05-02T09:11:23.821Z,99.90
2019-05-02T09:13:53.848Z,99.90
2019-05-02T09:16:28.936Z,99.90
2019-05-02T09:18:55.542Z,99.90
2019-05-02T09:21:26.684Z,99.90
2019-05-02T09:23:57.341Z,99.90
2019-05-02T09:26:37.787Z,99.90
2019-05-02T09:29:01.668Z,99.90
2019-05-02T09:31:31.989Z,99.90
2019-05-02T09:34:02.788Z,99.90
2019-05-02T09:36:32.995Z,99.90
2019-05-02T09:39:03.334Z,99.90
2019-05-02T09:41:36.264Z,99.90
2019-05-02T09:44:08.884Z,99.90
2019-05-02T09:46:36.983Z,99.90
2019-05-02T09:49:11.971Z,99.90
2019-05-02T09:51:38.915Z,99.90
2019-05-02T09:54:08.959Z,99.90
2019-05-02T09:56:39.083Z,99.90
2019-05-02T09:59:24.453Z,99.90
2019-05-02T10:01:42.105Z,99.90
2019-05-02T10:04:12.407Z,99.90
2019-05-02T10:06:43.090Z,99.90
2019-05-02T10:09:13.226Z,99.90
2019-05-02T10:11:43.360Z,99.90
2019-05-02T10:14:13.743Z,99.90
2019-05-02T10:16:43.724Z,99.90
2019-05-02T10:19:13.778Z,99.90
2019-05-02T10:21:46.970Z,99.90
2019-05-02T10:24:15.521Z,99.90
2019-05-02T10:26:45.535Z,99.90
2019-05-02T10:29:15.560Z,99.90
2019-05-02T10:31:45.611Z,99.90
2019-05-02T10:34:17.659Z,99.90
2019-05-02T10:36:54.273Z,99.90
2019-05-02T10:39:19.215Z,99.90
2019-05-02T10:41:49.233Z,99.90
2019-05-02T10:44:19.279Z,99.90
2019-05-02T10:46:58.977Z,99.90
2019-05-02T10:49:42.611Z,99.90
2019-05-02T10:52:12.485Z,99.90
2019-05-02T10:54:42.573Z,99.90
2019-05-02T10:57:12.798Z,99.90
2019-05-02T10:59:42.968Z,99.90
2019-05-02T11:02:24.432Z,99.90
2019-05-02T11:04:57.369Z,99.90
2019-05-02T11:07:27.456Z,99.90
2019-05-02T11:10:02.306Z,99.90
2019-05-02T11:12:58.841Z,99.90
2019-05-02T11:15:48.873Z,97.40
2019-05-02T11:18:39.189Z,97.10
2019-05-02T11:20:54.336Z,95.20
2019-05-02T11:23:24.311Z,95.30
2019-05-02T11:25:54.441Z,95.80
2019-05-02T11:28:24.489Z,97.50
2019-05-02T11:30:56.982Z,97.60
2019-05-02T11:33:26.369Z,96.40
2019-05-02T11:35:56.454Z,94.20
2019-05-02T11:38:39.541Z,94.10
2019-05-02T11:40:58.087Z,93.70
2019-05-02T11:43:28.055Z,96.10
2019-05-02T11:46:05.508Z,96.90
2019-05-02T11:48:31.886Z,97.20
2019-05-02T11:51:02.732Z,97.10
2019-05-02T11:53:32.927Z,98.70
2019-05-02T11:56:07.463Z,97.60
2019-05-02T11:58:35.505Z,96.20
2019-05-02T12:01:12.467Z,99.80
2019-05-02T12:03:52.247Z,99.90
2019-05-02T12:06:22.507Z,96.20
2019-05-02T12:08:52.861Z,95.10
2019-05-02T12:11:23.625Z,96.20
2019-05-02T12:13:56.935Z,95.80
2019-05-02T12:16:27.006Z,99.20
2019-05-02T12:19:09.465Z,99.90
2019-05-02T12:21:32.330Z,99.90
2019-05-02T12:24:02.456Z,99.90
2019-05-02T12:26:32.800Z,99.90
2019-05-02T12:29:03.019Z,99.90
2019-05-02T12:31:33.222Z,99.90
2019-05-02T12:34:05.511Z,99.90
2019-05-02T12:36:35.555Z,99.90
2019-05-02T12:39:07.422Z,99.90
2019-05-02T12:41:37.471Z,99.90
2019-05-02T12:44:07.609Z,99.90
2019-05-02T12:46:37.668Z,99.90
2019-05-02T12:49:07.752Z,99.90
2019-05-02T12:51:37.965Z,99.90
2019-05-02T12:54:07.972Z,99.90
2019-05-02T12:56:38.061Z,99.90
2019-05-02T12:59:08.089Z,99.90
2019-05-02T13:01:38.180Z,99.90
2019-05-02T13:04:09.956Z,99.90
2019-05-02T13:06:42.074Z,99.90
2019-05-02T13:09:12.829Z,99.90
2019-05-02T13:11:54.746Z,99.90
2019-05-02T13:14:27.463Z,99.90
2019-05-02T13:17:01.289Z,99.90
2019-05-02T13:19:38.075Z,99.90
2019-05-02T13:22:18.800Z,99.90
2019-05-02T13:24:54.800Z,99.90
2019-05-02T13:27:23.579Z,99.90
2019-05-02T13:29:53.717Z,99.90
2019-05-02T13:32:29.322Z,99.90
2019-05-02T13:35:24.710Z,99.90
2019-05-02T13:37:57.600Z,99.90
2019-05-02T13:40:41.790Z,99.90
2019-05-02T13:43:12.648Z,99.90
2019-05-02T13:46:02.247Z,99.90
2019-05-02T13:48:32.710Z,99.90
2019-05-02T13:51:03.920Z,99.90
2019-05-02T13:53:35.780Z,99.90
2019-05-02T13:56:23.560Z,99.90
2019-05-02T13:58:53.698Z,99.90
2019-05-02T14:01:23.820Z,99.90
2019-05-02T14:03:55.837Z,99.90
2019-05-02T14:06:30.244Z,99.90
2019-05-02T14:09:07.430Z,99.90
2019-05-02T14:11:50.292Z,99.90
2019-05-02T14:14:20.201Z,99.90
2019-05-02T14:16:50.262Z,99.90
2019-05-02T14:19:22.161Z,99.90
2019-05-02T14:21:52.390Z,99.90
2019-05-02T14:24:23.180Z,99.90
2019-05-02T14:26:53.327Z,99.90
2019-05-02T14:29:23.468Z,99.90
2019-05-02T14:31:53.564Z,99.90
2019-05-02T14:34:45.754Z,99.90
2019-05-02T14:37:15.873Z,99.90
2019-05-02T14:39:47.627Z,99.90
2019-05-02T14:42:22.144Z,99.90
2019-05-02T14:45:05.611Z,99.90
2019-05-02T14:47:22.414Z,99.90
2019-05-02T14:49:56.728Z,99.90
2019-05-02T14:52:24.293Z,99.90
2019-05-02T14:54:55.736Z,99.90
2019-05-02T14:57:27.217Z,99.90
2019-05-02T14:59:59.420Z,99.90
2019-05-02T15:02:48.972Z,99.90
2019-05-02T15:05:19.290Z,99.90
2019-05-02T15:07:48.777Z,99.90
2019-05-02T15:10:20.043Z,99.90
2019-05-02T15:12:53.486Z,99.90
2019-05-02T15:15:23.137Z,99.90
2019-05-02T15:17:53.387Z,99.90
2019-05-02T15:20:36.220Z,99.90
2019-05-02T15:22:55.257Z,99.90
2019-05-02T15:25:25.323Z,99.90
2019-05-02T15:27:58.770Z,99.90
2019-05-02T15:30:27.140Z,99.90
2019-05-02T15:33:12.404Z,99.90
2019-05-02T15:35:52.683Z,99.90
2019-05-02T15:38:27.332Z,99.90
2019-05-02T15:40:54.636Z,99.90
2019-05-02T15:43:24.826Z,99.90
2019-05-02T15:45:55.010Z,99.90
2019-05-02T15:48:27.614Z,99.90
2019-05-02T15:51:00.132Z,99.90
2019-05-02T15:53:33.904Z,99.90
2019-05-02T15:56:03.991Z,99.90
2019-05-02T15:58:34.176Z,99.90
2019-05-02T16:01:41.612Z,99.90
2019-05-02T16:04:12.707Z,99.90
2019-05-02T16:06:42.946Z,99.90
2019-05-02T16:09:13.170Z,99.90
2019-05-02T16:11:43.518Z,99.90
2019-05-02T16:14:13.676Z,99.90
2019-05-02T16:16:45.365Z,99.90
2019-05-02T16:19:27.012Z,99.90
2019-05-02T16:21:53.163Z,99.90
2019-05-02T16:24:24.296Z,99.90
2019-05-02T16:26:57.150Z,99.90
2019-05-02T16:29:29.076Z,99.90
2019-05-02T16:32:18.843Z,99.90
2019-05-02T16:34:54.732Z,99.90
2019-05-02T16:37:24.343Z,99.90
2019-05-02T16:39:54.432Z,99.90
2019-05-02T16:42:24.513Z,99.90
2019-05-02T16:44:54.995Z,99.90
2019-05-02T16:47:26.984Z,99.90
2019-05-02T16:49:57.037Z,99.90
2019-05-02T16:52:28.516Z,99.90
2019-05-02T16:54:58.594Z,99.90
2019-05-02T16:57:28.700Z,99.90
2019-05-02T17:00:01.670Z,99.90
2019-05-02T17:02:32.464Z,99.90
2019-05-02T17:05:08.241Z,99.90
2019-05-02T17:08:10.562Z,99.90
2019-05-02T17:10:47.346Z,99.90
2019-05-02T17:13:16.154Z,99.90
2019-05-02T17:15:46.263Z,99.90
2019-05-02T17:18:18.220Z,99.90
2019-05-02T17:20:54.367Z,99.90
2019-05-02T17:23:22.156Z,99.90
2019-05-02T17:25:52.383Z,99.90
2019-05-02T17:28:22.478Z,99.90
2019-05-02T17:30:53.043Z,99.90
2019-05-02T17:33:23.240Z,99.90
2019-05-02T17:35:54.322Z,99.90
2019-05-02T17:38:29.029Z,99.90
2019-05-02T17:40:59.253Z,99.90
2019-05-02T17:43:28.487Z,99.90
2019-05-02T17:45:58.608Z,99.90
2019-05-02T17:48:32.448Z,99.90
2019-05-02T17:51:19.104Z,99.90
2019-05-02T17:53:49.935Z,99.90
2019-05-02T17:56:22.609Z,99.90
2019-05-02T17:58:54.352Z,99.90
2019-05-02T18:01:35.188Z,99.90
2019-05-02T18:04:06.718Z,99.90
2019-05-02T18:06:37.174Z,99.90
2019-05-02T18:09:08.571Z,99.90
2019-05-02T18:11:38.543Z,99.90
2019-05-02T18:14:18.637Z,99.90
2019-05-02T18:16:42.012Z,99.90
2019-05-02T18:19:15.956Z,99.90
2019-05-02T18:21:43.981Z,99.90
2019-05-02T18:24:14.242Z,99.90
2019-05-02T18:26:44.279Z,99.90
2019-05-02T18:29:15.503Z,99.90
2019-05-02T18:31:47.621Z,99.90
2019-05-02T18:34:21.167Z,99.90
2019-05-02T18:36:49.134Z,99.90
2019-05-02T18:39:22.173Z,99.90
2019-05-02T18:41:54.929Z,99.90
2019-05-02T18:44:23.967Z,99.90
2019-05-02T18:46:54.051Z,99.90
2019-05-02T18:49:24.123Z,99.90
2019-05-02T18:51:57.344Z,99.90
2019-05-02T18:54:25.890Z,99.90
2019-05-02T18:56:55.994Z,99.90
2019-05-02T18:59:27.235Z,99.90
2019-05-02T19:01:59.635Z,99.90
2019-05-02T19:04:34.909Z,99.90
2019-05-02T19:07:02.696Z,99.90
2019-05-02T19:09:33.451Z,99.90
2019-05-02T19:12:05.822Z,99.90
2019-05-02T19:14:35.321Z,99.90
2019-05-02T19:17:07.269Z,99.90
2019-05-02T19:19:37.190Z,99.90
2019-05-02T19:22:12.205Z,99.90
2019-05-02T19:24:38.956Z,99.90
2019-05-02T19:27:10.087Z,99.90
2019-05-02T19:29:42.350Z,99.90
2019-05-02T19:32:12.451Z,99.90
2019-05-02T19:34:43.852Z,99.90
2019-05-02T19:37:14.047Z,99.90
2019-05-02T19:39:48.721Z,99.90
2019-05-02T19:42:21.651Z,99.90
2019-05-02T19:44:52.773Z,99.90
2019-05-02T19:47:22.949Z,99.90
2019-05-02T19:49:54.399Z,99.90
2019-05-02T19:52:28.566Z,99.90
2019-05-02T19:54:58.834Z,99.90
2019-05-02T19:57:27.823Z,99.90
2019-05-02T20:00:02.722Z,99.90
2019-05-02T20:02:29.592Z,99.90
2019-05-02T20:04:59.796Z,99.90
2019-05-02T20:07:29.894Z,99.90
2019-05-02T20:10:01.821Z,99.90
2019-05-02T20:12:31.687Z,99.90
2019-05-02T20:15:01.720Z,99.90
2019-05-02T20:17:32.563Z,99.90
2019-05-02T20:20:07.039Z,99.90
2019-05-02T20:22:40.679Z,99.90
2019-05-02T20:25:08.047Z,99.90
2019-05-02T20:27:38.073Z,99.90
2019-05-02T20:30:08.729Z,99.90
2019-05-02T20:32:38.735Z,99.90
2019-05-02T20:35:08.984Z,99.90
2019-05-02T20:37:39.025Z,99.90
2019-05-02T20:40:23.787Z,99.90
2019-05-02T20:42:54.011Z,99.90
2019-05-02T20:45:24.072Z,99.90
2019-05-02T20:47:55.201Z,99.90
2019-05-02T20:50:25.504Z,99.90
2019-05-02T20:52:55.542Z,99.90
2019-05-02T20:55:25.530Z,99.90
2019-05-02T20:57:55.651Z,99.90
2019-05-02T21:00:28.085Z,99.90
2019-05-02T21:03:02.622Z,99.90
2019-05-02T21:05:42.846Z,99.90
2019-05-02T21:08:24.155Z,99.90
2019-05-02T21:10:54.737Z,99.90
2019-05-02T21:13:24.931Z,99.90
2019-05-02T21:15:55.230Z,99.90
2019-05-02T21:18:27.415Z,99.90
2019-05-02T21:20:57.452Z,99.90
2019-05-02T21:23:27.416Z,99.90
2019-05-02T21:25:57.461Z,99.90
2019-05-02T21:28:27.408Z,99.90
2019-05-02T21:30:57.378Z,99.90
2019-05-02T21:33:36.386Z,99.90
2019-05-02T21:36:07.282Z,99.90
2019-05-02T21:38:37.334Z,99.90
2019-05-02T21:41:09.799Z,99.90
2019-05-02T21:43:39.904Z,99.90
2019-05-02T21:46:10.116Z,99.90
2019-05-02T21:48:41.995Z,99.90
2019-05-02T21:51:18.753Z,99.90
2019-05-02T21:54:06.541Z,99.90
2019-05-02T21:56:45.568Z,99.90
2019-05-02T21:59:15.599Z,99.90
2019-05-02T22:01:51.942Z,99.90
2019-05-02T22:04:22.478Z,99.90
2019-05-02T22:06:52.848Z,99.90
2019-05-02T22:09:23.254Z,99.90
2019-05-02T22:11:53.411Z,99.90
2019-05-02T22:14:23.447Z,99.90
2019-05-02T22:16:53.469Z,99.90
2019-05-02T22:19:23.495Z,99.90
2019-05-02T22:21:53.514Z,99.90
2019-05-02T22:24:23.530Z,99.90
2019-05-02T22:26:53.555Z,99.90
2019-05-02T22:29:23.629Z,99.90
2019-05-02T22:31:54.553Z,99.90
2019-05-02T22:34:24.862Z,99.90
2019-05-02T22:36:54.947Z,99.90
2019-05-02T22:39:42.193Z,99.90
2019-05-02T22:42:12.798Z,99.90
2019-05-02T22:44:42.979Z,99.90
2019-05-02T22:47:14.072Z,99.90
2019-05-02T22:49:44.253Z,99.90
2019-05-02T22:52:14.512Z,99.90
2019-05-02T22:54:44.587Z,99.90
2019-05-02T22:57:14.608Z,99.90
2019-05-02T22:59:44.675Z,99.90
2019-05-02T23:02:14.715Z,99.90
2019-05-02T23:04:44.722Z,99.90
2019-05-02T23:07:14.759Z,99.90
2019-05-02T23:09:44.711Z,99.90
2019-05-02T23:12:14.742Z,99.90
2019-05-02T23:14:44.799Z,99.90
2019-05-02T23:17:14.878Z,99.90
2019-05-02T23:19:44.946Z,99.90
2019-05-02T23:22:15.019Z,99.90
2019-05-02T23:25:11.666Z,99.90
2019-05-02T23:27:45.927Z,99.90
2019-05-02T23:30:18.964Z,99.90
2019-05-02T23:32:48.993Z,99.90
2019-05-02T23:35:18.871Z,99.90
2019-05-02T23:37:50.002Z,99.90
2019-05-02T23:40:20.055Z,99.90
2019-05-02T23:42:50.079Z,99.90
2019-05-02T23:45:20.124Z,99.90
2019-05-02T23:47:50.315Z,99.90
2019-05-02T23:50:20.368Z,99.90
2019-05-02T23:52:50.429Z,99.90
2019-05-02T23:55:20.491Z,99.90
2019-05-02T23:57:52.217Z,99.90
